sensor_id;sensor_type;location;lat;lon;timestamp;P1;durP1;ratioP1;P2;durP2;ratioP2
70806;SDS011;58882;52.170;5.386;2022-12-18T00:01:17;26.17;;;11.68;;
70806;SDS011;58882;52.170;5.386;2022-12-18T00:04:20;26.65;;;13.00;;
70806;SDS011;58882;52.170;5.386;2022-12-18T00:07:03;27.67;;;12.43;;
70806;SDS011;58882;52.170;5.386;2022-12-18T00:09:49;29.27;;;13.05;;
70806;SDS011;58882;52.170;5.386;2022-12-18T00:12:30;29.67;;;13.32;;
70806;SDS011;58882;52.170;5.386;2022-12-18T00:15:16;27.77;;;13.18;;
70806;SDS011;58882;52.170;5.386;2022-12-18T00:17:57;30.63;;;12.63;;
70806;SDS011;58882;52.170;5.386;2022-12-18T00:20:43;27.60;;;12.90;;
70806;SDS011;58882;52.170;5.386;2022-12-18T00:23:24;28.02;;;13.40;;
70806;SDS011;58882;52.170;5.386;2022-12-18T00:26:12;27.00;;;12.25;;
70806;SDS011;58882;52.170;5.386;2022-12-18T00:28:58;27.55;;;12.57;;
70806;SDS011;58882;52.170;5.386;2022-12-18T00:31:48;29.13;;;12.70;;
70806;SDS011;58882;52.170;5.386;2022-12-18T00:34:29;30.15;;;13.15;;
70806;SDS011;58882;52.170;5.386;2022-12-18T00:37:15;25.98;;;12.80;;
70806;SDS011;58882;52.170;5.386;2022-12-18T00:39:56;28.27;;;12.65;;
70806;SDS011;58882;52.170;5.386;2022-12-18T00:42:42;29.50;;;13.65;;
70806;SDS011;58882;52.170;5.386;2022-12-18T00:45:35;29.98;;;13.52;;
70806;SDS011;58882;52.170;5.386;2022-12-18T00:48:21;29.20;;;13.55;;
70806;SDS011;58882;52.170;5.386;2022-12-18T00:51:02;31.85;;;13.98;;
70806;SDS011;58882;52.170;5.386;2022-12-18T00:53:49;30.83;;;13.63;;
70806;SDS011;58882;52.170;5.386;2022-12-18T00:56:30;29.73;;;13.73;;
70806;SDS011;58882;52.170;5.386;2022-12-18T00:59:27;31.27;;;13.43;;
70806;SDS011;58882;52.170;5.386;2022-12-18T01:02:09;31.70;;;14.30;;
70806;SDS011;58882;52.170;5.386;2022-12-18T01:04:56;30.10;;;13.13;;
70806;SDS011;58882;52.170;5.386;2022-12-18T01:07:37;30.65;;;13.80;;
70806;SDS011;58882;52.170;5.386;2022-12-18T01:10:31;28.98;;;13.00;;
70806;SDS011;58882;52.170;5.386;2022-12-18T01:13:18;28.92;;;12.93;;
70806;SDS011;58882;52.170;5.386;2022-12-18T01:15:59;36.83;;;14.18;;
70806;SDS011;58882;52.170;5.386;2022-12-18T01:18:45;30.75;;;13.80;;
70806;SDS011;58882;52.170;5.386;2022-12-18T01:21:26;31.35;;;13.65;;
70806;SDS011;58882;52.170;5.386;2022-12-18T01:24:20;29.33;;;14.38;;
70806;SDS011;58882;52.170;5.386;2022-12-18T01:26:54;30.17;;;13.93;;
70806;SDS011;58882;52.170;5.386;2022-12-18T01:29:48;28.00;;;13.90;;
70806;SDS011;58882;52.170;5.386;2022-12-18T01:32:29;30.30;;;13.73;;
70806;SDS011;58882;52.170;5.386;2022-12-18T01:35:23;33.60;;;13.60;;
70806;SDS011;58882;52.170;5.386;2022-12-18T01:38:04;29.75;;;13.80;;
70806;SDS011;58882;52.170;5.386;2022-12-18T01:40:56;32.05;;;14.48;;
70806;SDS011;58882;52.170;5.386;2022-12-18T01:46:54;30.95;;;13.80;;
70806;SDS011;58882;52.170;5.386;2022-12-18T01:49:35;32.90;;;14.43;;
70806;SDS011;58882;52.170;5.386;2022-12-18T01:52:22;30.65;;;13.32;;
70806;SDS011;58882;52.170;5.386;2022-12-18T01:54:57;32.40;;;14.27;;
70806;SDS011;58882;52.170;5.386;2022-12-18T01:57:53;32.97;;;13.85;;
70806;SDS011;58882;52.170;5.386;2022-12-18T02:00:36;29.88;;;13.93;;
70806;SDS011;58882;52.170;5.386;2022-12-18T02:03:24;28.33;;;13.70;;
70806;SDS011;58882;52.170;5.386;2022-12-18T02:09:20;32.95;;;14.15;;
70806;SDS011;58882;52.170;5.386;2022-12-18T02:12:16;33.95;;;15.30;;
70806;SDS011;58882;52.170;5.386;2022-12-18T02:18:25;30.55;;;14.60;;
70806;SDS011;58882;52.170;5.386;2022-12-18T02:28:11;30.92;;;14.38;;
70806;SDS011;58882;52.170;5.386;2022-12-18T02:30:57;38.53;;;14.13;;
70806;SDS011;58882;52.170;5.386;2022-12-18T02:33:48;30.88;;;14.15;;
70806;SDS011;58882;52.170;5.386;2022-12-18T02:36:36;31.25;;;15.48;;
70806;SDS011;58882;52.170;5.386;2022-12-18T02:39:34;32.58;;;14.73;;
70806;SDS011;58882;52.170;5.386;2022-12-18T02:42:16;29.42;;;14.27;;
70806;SDS011;58882;52.170;5.386;2022-12-18T02:45:04;29.10;;;13.80;;
70806;SDS011;58882;52.170;5.386;2022-12-18T02:47:39;30.92;;;14.32;;
70806;SDS011;58882;52.170;5.386;2022-12-18T02:50:41;30.55;;;13.95;;
70806;SDS011;58882;52.170;5.386;2022-12-18T02:53:27;29.40;;;13.00;;
70806;SDS011;58882;52.170;5.386;2022-12-18T02:56:31;28.08;;;13.32;;
70806;SDS011;58882;52.170;5.386;2022-12-18T02:59:20;28.65;;;13.60;;
70806;SDS011;58882;52.170;5.386;2022-12-18T03:02:32;30.63;;;13.15;;
70806;SDS011;58882;52.170;5.386;2022-12-18T03:05:17;30.45;;;13.90;;
70806;SDS011;58882;52.170;5.386;2022-12-18T03:08:06;31.48;;;14.43;;
70806;SDS011;58882;52.170;5.386;2022-12-18T03:11:08;29.70;;;13.70;;
70806;SDS011;58882;52.170;5.386;2022-12-18T03:14:23;28.02;;;14.00;;
70806;SDS011;58882;52.170;5.386;2022-12-18T03:17:03;30.13;;;14.90;;
70806;SDS011;58882;52.170;5.386;2022-12-18T03:20:03;30.13;;;13.85;;
70806;SDS011;58882;52.170;5.386;2022-12-18T03:22:47;27.33;;;12.75;;
70806;SDS011;58882;52.170;5.386;2022-12-18T03:25:41;31.02;;;13.02;;
70806;SDS011;58882;52.170;5.386;2022-12-18T03:28:24;29.17;;;13.80;;
70806;SDS011;58882;52.170;5.386;2022-12-18T03:31:16;27.15;;;13.05;;
70806;SDS011;58882;52.170;5.386;2022-12-18T03:34:15;26.63;;;13.38;;
70806;SDS011;58882;52.170;5.386;2022-12-18T03:37:05;27.90;;;13.35;;
70806;SDS011;58882;52.170;5.386;2022-12-18T03:39:52;27.48;;;13.75;;
70806;SDS011;58882;52.170;5.386;2022-12-18T03:42:43;28.25;;;12.98;;
70806;SDS011;58882;52.170;5.386;2022-12-18T03:45:48;27.55;;;13.50;;
70806;SDS011;58882;52.170;5.386;2022-12-18T03:48:37;27.58;;;13.18;;
70806;SDS011;58882;52.170;5.386;2022-12-18T03:51:42;27.15;;;13.23;;
70806;SDS011;58882;52.170;5.386;2022-12-18T03:54:36;26.45;;;12.50;;
70806;SDS011;58882;52.170;5.386;2022-12-18T03:57:33;27.35;;;12.77;;
70806;SDS011;58882;52.170;5.386;2022-12-18T04:00:10;26.23;;;13.07;;
70806;SDS011;58882;52.170;5.386;2022-12-18T04:03:11;28.17;;;12.43;;
70806;SDS011;58882;52.170;5.386;2022-12-18T04:05:47;27.77;;;12.88;;
70806;SDS011;58882;52.170;5.386;2022-12-18T04:08:45;29.30;;;13.63;;
70806;SDS011;58882;52.170;5.386;2022-12-18T04:11:28;33.42;;;11.75;;
70806;SDS011;58882;52.170;5.386;2022-12-18T04:17:06;25.88;;;12.48;;
70806;SDS011;58882;52.170;5.386;2022-12-18T04:19:53;25.15;;;12.18;;
70806;SDS011;58882;52.170;5.386;2022-12-18T04:22:28;27.70;;;13.23;;
70806;SDS011;58882;52.170;5.386;2022-12-18T04:25:24;27.42;;;12.48;;
70806;SDS011;58882;52.170;5.386;2022-12-18T04:30:52;21.27;;;10.73;;
70806;SDS011;58882;52.170;5.386;2022-12-18T04:33:38;25.38;;;11.80;;
70806;SDS011;58882;52.170;5.386;2022-12-18T04:41:39;22.02;;;10.55;;
70806;SDS011;58882;52.170;5.386;2022-12-18T04:47:27;23.42;;;11.10;;
70806;SDS011;58882;52.170;5.386;2022-12-18T04:50:08;21.20;;;10.95;;
70806;SDS011;58882;52.170;5.386;2022-12-18T04:52:55;20.58;;;10.45;;
70806;SDS011;58882;52.170;5.386;2022-12-18T04:55:41;20.80;;;11.25;;
70806;SDS011;58882;52.170;5.386;2022-12-18T04:58:36;22.10;;;10.43;;
70806;SDS011;58882;52.170;5.386;2022-12-18T05:01:10;22.92;;;10.75;;
70806;SDS011;58882;52.170;5.386;2022-12-18T05:04:13;20.25;;;10.25;;
70806;SDS011;58882;52.170;5.386;2022-12-18T05:07:07;21.40;;;10.45;;
70806;SDS011;58882;52.170;5.386;2022-12-18T05:09:41;20.95;;;10.52;;
70806;SDS011;58882;52.170;5.386;2022-12-18T05:12:34;19.90;;;10.45;;
70806;SDS011;58882;52.170;5.386;2022-12-18T05:15:31;21.35;;;9.68;;
70806;SDS011;58882;52.170;5.386;2022-12-18T05:18:26;19.77;;;9.35;;
70806;SDS011;58882;52.170;5.386;2022-12-18T05:21:00;19.75;;;10.00;;
70806;SDS011;58882;52.170;5.386;2022-12-18T05:23:53;20.48;;;10.50;;
70806;SDS011;58882;52.170;5.386;2022-12-18T05:26:33;19.55;;;9.85;;
70806;SDS011;58882;52.170;5.386;2022-12-18T05:29:20;19.52;;;10.20;;
70806;SDS011;58882;52.170;5.386;2022-12-18T05:32:01;18.95;;;9.30;;
70806;SDS011;58882;52.170;5.386;2022-12-18T05:34:47;18.90;;;9.23;;
70806;SDS011;58882;52.170;5.386;2022-12-18T05:37:27;18.35;;;9.30;;
70806;SDS011;58882;52.170;5.386;2022-12-18T05:40:21;20.33;;;9.45;;
70806;SDS011;58882;52.170;5.386;2022-12-18T05:43:02;19.27;;;9.13;;
70806;SDS011;58882;52.170;5.386;2022-12-18T05:45:48;17.40;;;9.23;;
70806;SDS011;58882;52.170;5.386;2022-12-18T05:48:29;17.40;;;9.30;;
70806;SDS011;58882;52.170;5.386;2022-12-18T05:51:16;18.48;;;9.18;;
70806;SDS011;58882;52.170;5.386;2022-12-18T05:54:05;20.05;;;8.40;;
70806;SDS011;58882;52.170;5.386;2022-12-18T05:56:59;20.52;;;9.68;;
70806;SDS011;58882;52.170;5.386;2022-12-18T05:59:39;17.73;;;9.45;;
70806;SDS011;58882;52.170;5.386;2022-12-18T06:02:46;17.63;;;9.15;;
70806;SDS011;58882;52.170;5.386;2022-12-18T06:05:27;17.98;;;9.43;;
70806;SDS011;58882;52.170;5.386;2022-12-18T06:08:21;17.65;;;9.20;;
70806;SDS011;58882;52.170;5.386;2022-12-18T06:11:02;23.95;;;9.40;;
70806;SDS011;58882;52.170;5.386;2022-12-18T06:13:52;19.80;;;8.82;;
70806;SDS011;58882;52.170;5.386;2022-12-18T06:16:34;20.10;;;9.82;;
70806;SDS011;58882;52.170;5.386;2022-12-18T06:19:20;17.83;;;8.55;;
70806;SDS011;58882;52.170;5.386;2022-12-18T06:22:00;19.23;;;9.45;;
70806;SDS011;58882;52.170;5.386;2022-12-18T06:24:47;18.17;;;8.85;;
70806;SDS011;58882;52.170;5.386;2022-12-18T06:27:28;18.50;;;8.25;;
70806;SDS011;58882;52.170;5.386;2022-12-18T06:30:21;15.00;;;7.80;;
70806;SDS011;58882;52.170;5.386;2022-12-18T06:32:55;18.35;;;7.85;;
70806;SDS011;58882;52.170;5.386;2022-12-18T06:35:48;16.52;;;8.23;;
70806;SDS011;58882;52.170;5.386;2022-12-18T06:38:33;17.13;;;8.43;;
70806;SDS011;58882;52.170;5.386;2022-12-18T06:41:21;16.65;;;8.25;;
70806;SDS011;58882;52.170;5.386;2022-12-18T06:44:02;18.40;;;9.20;;
70806;SDS011;58882;52.170;5.386;2022-12-18T06:46:49;17.45;;;8.45;;
70806;SDS011;58882;52.170;5.386;2022-12-18T06:49:23;17.80;;;9.07;;
70806;SDS011;58882;52.170;5.386;2022-12-18T06:52:16;18.15;;;9.18;;
70806;SDS011;58882;52.170;5.386;2022-12-18T06:55:04;20.30;;;9.38;;
70806;SDS011;58882;52.170;5.386;2022-12-18T06:57:58;17.65;;;8.73;;
70806;SDS011;58882;52.170;5.386;2022-12-18T07:00:39;16.05;;;8.57;;
70806;SDS011;58882;52.170;5.386;2022-12-18T07:03:26;19.15;;;9.52;;
70806;SDS011;58882;52.170;5.386;2022-12-18T07:06:12;16.33;;;8.88;;
70806;SDS011;58882;52.170;5.386;2022-12-18T07:09:00;18.13;;;8.68;;
70806;SDS011;58882;52.170;5.386;2022-12-18T07:11:41;18.33;;;8.48;;
70806;SDS011;58882;52.170;5.386;2022-12-18T07:14:34;17.30;;;8.57;;
70806;SDS011;58882;52.170;5.386;2022-12-18T07:17:08;15.75;;;8.40;;
70806;SDS011;58882;52.170;5.386;2022-12-18T07:20:01;20.10;;;8.52;;
70806;SDS011;58882;52.170;5.386;2022-12-18T07:22:41;16.08;;;8.55;;
70806;SDS011;58882;52.170;5.386;2022-12-18T07:25:36;16.70;;;8.18;;
70806;SDS011;58882;52.170;5.386;2022-12-18T07:28:09;16.65;;;8.20;;
70806;SDS011;58882;52.170;5.386;2022-12-18T07:31:04;15.00;;;8.18;;
70806;SDS011;58882;52.170;5.386;2022-12-18T07:34:03;16.20;;;8.32;;
70806;SDS011;58882;52.170;5.386;2022-12-18T07:36:37;16.75;;;8.68;;
70806;SDS011;58882;52.170;5.386;2022-12-18T07:39:31;16.30;;;8.15;;
70806;SDS011;58882;52.170;5.386;2022-12-18T07:42:10;17.98;;;8.05;;
70806;SDS011;58882;52.170;5.386;2022-12-18T07:45:16;16.50;;;8.07;;
70806;SDS011;58882;52.170;5.386;2022-12-18T07:47:56;14.68;;;7.85;;
70806;SDS011;58882;52.170;5.386;2022-12-18T07:50:50;15.50;;;8.00;;
70806;SDS011;58882;52.170;5.386;2022-12-18T07:53:24;14.30;;;7.63;;
70806;SDS011;58882;52.170;5.386;2022-12-18T07:56:19;16.67;;;8.02;;
70806;SDS011;58882;52.170;5.386;2022-12-18T07:59:02;13.90;;;7.03;;
70806;SDS011;58882;52.170;5.386;2022-12-18T08:01:48;12.93;;;7.05;;
70806;SDS011;58882;52.170;5.386;2022-12-18T08:04:29;13.90;;;7.47;;
70806;SDS011;58882;52.170;5.386;2022-12-18T08:07:15;16.63;;;8.20;;
70806;SDS011;58882;52.170;5.386;2022-12-18T08:09:55;15.43;;;8.23;;
70806;SDS011;58882;52.170;5.386;2022-12-18T08:12:42;15.13;;;7.90;;
70806;SDS011;58882;52.170;5.386;2022-12-18T08:15:22;15.35;;;8.00;;
70806;SDS011;58882;52.170;5.386;2022-12-18T08:18:09;15.25;;;8.07;;
70806;SDS011;58882;52.170;5.386;2022-12-18T08:20:50;15.15;;;8.23;;
70806;SDS011;58882;52.170;5.386;2022-12-18T08:23:36;15.38;;;8.32;;
70806;SDS011;58882;52.170;5.386;2022-12-18T08:26:17;14.48;;;7.47;;
70806;SDS011;58882;52.170;5.386;2022-12-18T08:29:03;16.15;;;8.48;;
70806;SDS011;58882;52.170;5.386;2022-12-18T08:31:43;16.27;;;8.50;;
70806;SDS011;58882;52.170;5.386;2022-12-18T08:34:37;16.85;;;7.97;;
70806;SDS011;58882;52.170;5.386;2022-12-18T08:37:11;15.15;;;8.02;;
70806;SDS011;58882;52.170;5.386;2022-12-18T08:40:05;16.98;;;8.35;;
70806;SDS011;58882;52.170;5.386;2022-12-18T08:42:38;15.57;;;8.02;;
70806;SDS011;58882;52.170;5.386;2022-12-18T08:45:51;15.43;;;8.55;;
70806;SDS011;58882;52.170;5.386;2022-12-18T08:48:25;15.05;;;8.20;;
70806;SDS011;58882;52.170;5.386;2022-12-18T08:51:19;16.00;;;8.38;;
70806;SDS011;58882;52.170;5.386;2022-12-18T08:54:06;14.80;;;7.35;;
70806;SDS011;58882;52.170;5.386;2022-12-18T08:57:03;17.27;;;8.27;;
70806;SDS011;58882;52.170;5.386;2022-12-18T08:59:43;22.63;;;8.07;;
70806;SDS011;58882;52.170;5.386;2022-12-18T09:02:37;20.65;;;7.80;;
70806;SDS011;58882;52.170;5.386;2022-12-18T09:05:12;14.65;;;7.57;;
70806;SDS011;58882;52.170;5.386;2022-12-18T09:08:05;18.67;;;8.68;;
70806;SDS011;58882;52.170;5.386;2022-12-18T09:10:48;16.58;;;7.90;;
70806;SDS011;58882;52.170;5.386;2022-12-18T09:13:35;14.63;;;7.15;;
70806;SDS011;58882;52.170;5.386;2022-12-18T09:16:10;16.55;;;8.15;;
70806;SDS011;58882;52.170;5.386;2022-12-18T09:19:09;19.15;;;7.47;;
70806;SDS011;58882;52.170;5.386;2022-12-18T09:21:49;14.98;;;7.75;;
70806;SDS011;58882;52.170;5.386;2022-12-18T09:24:36;14.68;;;7.40;;
70806;SDS011;58882;52.170;5.386;2022-12-18T09:27:17;14.80;;;7.53;;
70806;SDS011;58882;52.170;5.386;2022-12-18T09:30:04;16.35;;;8.27;;
70806;SDS011;58882;52.170;5.386;2022-12-18T09:32:45;15.68;;;8.05;;
70806;SDS011;58882;52.170;5.386;2022-12-18T09:35:31;14.23;;;7.63;;
70806;SDS011;58882;52.170;5.386;2022-12-18T09:38:18;15.40;;;7.85;;
70806;SDS011;58882;52.170;5.386;2022-12-18T09:41:34;14.25;;;7.63;;
70806;SDS011;58882;52.170;5.386;2022-12-18T09:44:29;16.70;;;8.25;;
70806;SDS011;58882;52.170;5.386;2022-12-18T09:47:28;15.23;;;7.82;;
70806;SDS011;58882;52.170;5.386;2022-12-18T09:50:16;13.60;;;7.35;;
70806;SDS011;58882;52.170;5.386;2022-12-18T09:53:22;14.88;;;7.30;;
70806;SDS011;58882;52.170;5.386;2022-12-18T09:55:58;14.88;;;7.75;;
70806;SDS011;58882;52.170;5.386;2022-12-18T09:58:58;13.27;;;7.18;;
70806;SDS011;58882;52.170;5.386;2022-12-18T10:01:40;14.60;;;7.28;;
70806;SDS011;58882;52.170;5.386;2022-12-18T10:04:33;14.55;;;7.38;;
70806;SDS011;58882;52.170;5.386;2022-12-18T10:07:09;12.60;;;6.90;;
70806;SDS011;58882;52.170;5.386;2022-12-18T10:13:02;15.18;;;7.07;;
70806;SDS011;58882;52.170;5.386;2022-12-18T10:27:45;12.57;;;6.15;;
70806;SDS011;58882;52.170;5.386;2022-12-18T10:30:26;12.98;;;6.20;;
70806;SDS011;58882;52.170;5.386;2022-12-18T10:33:17;12.80;;;6.55;;
70806;SDS011;58882;52.170;5.386;2022-12-18T10:35:58;13.55;;;6.70;;
70806;SDS011;58882;52.170;5.386;2022-12-18T10:38:45;12.98;;;6.78;;
70806;SDS011;58882;52.170;5.386;2022-12-18T10:41:26;12.32;;;6.18;;
70806;SDS011;58882;52.170;5.386;2022-12-18T10:44:21;12.93;;;6.40;;
70806;SDS011;58882;52.170;5.386;2022-12-18T10:47:03;11.98;;;5.80;;
70806;SDS011;58882;52.170;5.386;2022-12-18T10:49:52;12.38;;;6.00;;
70806;SDS011;58882;52.170;5.386;2022-12-18T10:52:34;12.93;;;6.13;;
70806;SDS011;58882;52.170;5.386;2022-12-18T10:55:35;11.13;;;6.07;;
70806;SDS011;58882;52.170;5.386;2022-12-18T11:01:20;14.07;;;6.28;;
70806;SDS011;58882;52.170;5.386;2022-12-18T11:04:02;12.50;;;6.13;;
70806;SDS011;58882;52.170;5.386;2022-12-18T11:07:06;11.27;;;5.68;;
70806;SDS011;58882;52.170;5.386;2022-12-18T11:09:40;12.45;;;6.10;;
70806;SDS011;58882;52.170;5.386;2022-12-18T11:12:34;13.20;;;5.88;;
70806;SDS011;58882;52.170;5.386;2022-12-18T11:15:13;12.35;;;5.90;;
70806;SDS011;58882;52.170;5.386;2022-12-18T11:18:33;11.10;;;5.80;;
70806;SDS011;58882;52.170;5.386;2022-12-18T11:21:14;11.02;;;5.72;;
70806;SDS011;58882;52.170;5.386;2022-12-18T11:24:00;10.65;;;5.82;;
70806;SDS011;58882;52.170;5.386;2022-12-18T11:26:41;11.93;;;6.15;;
70806;SDS011;58882;52.170;5.386;2022-12-18T11:29:39;12.70;;;5.75;;
70806;SDS011;58882;52.170;5.386;2022-12-18T11:35:28;11.00;;;5.80;;
70806;SDS011;58882;52.170;5.386;2022-12-18T11:41:15;11.40;;;5.50;;
70806;SDS011;58882;52.170;5.386;2022-12-18T11:51:01;12.75;;;5.95;;
70806;SDS011;58882;52.170;5.386;2022-12-18T11:53:51;11.45;;;6.15;;
70806;SDS011;58882;52.170;5.386;2022-12-18T11:56:44;11.73;;;5.88;;
70806;SDS011;58882;52.170;5.386;2022-12-18T11:59:49;12.52;;;5.68;;
70806;SDS011;58882;52.170;5.386;2022-12-18T12:02:42;12.30;;;5.88;;
70806;SDS011;58882;52.170;5.386;2022-12-18T12:05:58;10.68;;;5.70;;
70806;SDS011;58882;52.170;5.386;2022-12-18T12:14:39;10.80;;;5.55;;
70806;SDS011;58882;52.170;5.386;2022-12-18T12:21:03;11.70;;;5.90;;
70806;SDS011;58882;52.170;5.386;2022-12-18T12:30:57;11.43;;;5.50;;
70806;SDS011;58882;52.170;5.386;2022-12-18T12:33:37;10.82;;;6.13;;
70806;SDS011;58882;52.170;5.386;2022-12-18T12:39:40;9.73;;;5.25;;
70806;SDS011;58882;52.170;5.386;2022-12-18T12:42:40;12.20;;;6.18;;
70806;SDS011;58882;52.170;5.386;2022-12-18T12:51:37;13.43;;;6.07;;
70806;SDS011;58882;52.170;5.386;2022-12-18T12:54:27;13.90;;;6.60;;
70806;SDS011;58882;52.170;5.386;2022-12-18T12:57:13;12.05;;;5.88;;
70806;SDS011;58882;52.170;5.386;2022-12-18T13:00:14;11.98;;;5.65;;
70806;SDS011;58882;52.170;5.386;2022-12-18T13:03:08;12.05;;;5.45;;
70806;SDS011;58882;52.170;5.386;2022-12-18T13:06:23;11.32;;;5.80;;
70806;SDS011;58882;52.170;5.386;2022-12-18T13:09:16;12.30;;;6.07;;
70806;SDS011;58882;52.170;5.386;2022-12-18T13:12:04;12.32;;;6.10;;
70806;SDS011;58882;52.170;5.386;2022-12-18T13:18:28;12.52;;;6.10;;
70806;SDS011;58882;52.170;5.386;2022-12-18T13:21:03;12.55;;;5.80;;
70806;SDS011;58882;52.170;5.386;2022-12-18T13:24:15;14.63;;;6.30;;
70806;SDS011;58882;52.170;5.386;2022-12-18T13:26:56;13.10;;;6.25;;
70806;SDS011;58882;52.170;5.386;2022-12-18T13:29:49;12.05;;;5.72;;
70806;SDS011;58882;52.170;5.386;2022-12-18T13:32:43;12.27;;;6.00;;
70806;SDS011;58882;52.170;5.386;2022-12-18T13:47:26;11.82;;;6.28;;
70806;SDS011;58882;52.170;5.386;2022-12-18T13:50:26;12.40;;;6.15;;
70806;SDS011;58882;52.170;5.386;2022-12-18T13:53:12;13.05;;;6.40;;
70806;SDS011;58882;52.170;5.386;2022-12-18T13:56:07;12.23;;;6.22;;
70806;SDS011;58882;52.170;5.386;2022-12-18T14:02:38;11.75;;;6.43;;
70806;SDS011;58882;52.170;5.386;2022-12-18T14:05:25;12.60;;;6.25;;
70806;SDS011;58882;52.170;5.386;2022-12-18T14:08:14;14.02;;;6.63;;
70806;SDS011;58882;52.170;5.386;2022-12-18T14:10:59;12.82;;;6.15;;
70806;SDS011;58882;52.170;5.386;2022-12-18T14:13:50;10.90;;;5.53;;
70806;SDS011;58882;52.170;5.386;2022-12-18T14:16:24;12.93;;;6.65;;
70806;SDS011;58882;52.170;5.386;2022-12-18T14:19:17;11.27;;;6.15;;
70806;SDS011;58882;52.170;5.386;2022-12-18T14:21:58;12.18;;;6.45;;
70806;SDS011;58882;52.170;5.386;2022-12-18T14:24:44;12.68;;;6.03;;
70806;SDS011;58882;52.170;5.386;2022-12-18T14:27:22;12.95;;;6.60;;
70806;SDS011;58882;52.170;5.386;2022-12-18T14:30:28;14.45;;;6.55;;
70806;SDS011;58882;52.170;5.386;2022-12-18T14:33:26;14.10;;;7.18;;
70806;SDS011;58882;52.170;5.386;2022-12-18T14:36:01;11.93;;;6.50;;
70806;SDS011;58882;52.170;5.386;2022-12-18T14:38:58;13.95;;;7.22;;
70806;SDS011;58882;52.170;5.386;2022-12-18T14:41:32;13.45;;;6.63;;
70806;SDS011;58882;52.170;5.386;2022-12-18T14:44:25;12.98;;;6.53;;
70806;SDS011;58882;52.170;5.386;2022-12-18T14:47:15;12.05;;;6.25;;
70806;SDS011;58882;52.170;5.386;2022-12-18T14:50:13;13.02;;;7.00;;
70806;SDS011;58882;52.170;5.386;2022-12-18T14:52:53;13.07;;;6.35;;
70806;SDS011;58882;52.170;5.386;2022-12-18T14:55:43;13.68;;;6.65;;
70806;SDS011;58882;52.170;5.386;2022-12-18T14:58:28;14.48;;;7.18;;
70806;SDS011;58882;52.170;5.386;2022-12-18T15:01:18;13.73;;;7.03;;
70806;SDS011;58882;52.170;5.386;2022-12-18T15:07:53;14.77;;;6.78;;
70806;SDS011;58882;52.170;5.386;2022-12-18T15:10:35;14.65;;;6.90;;
70806;SDS011;58882;52.170;5.386;2022-12-18T15:13:33;13.63;;;6.85;;
70806;SDS011;58882;52.170;5.386;2022-12-18T15:16:13;17.35;;;7.03;;
70806;SDS011;58882;52.170;5.386;2022-12-18T15:19:07;14.07;;;7.10;;
70806;SDS011;58882;52.170;5.386;2022-12-18T15:21:48;14.23;;;7.25;;
70806;SDS011;58882;52.170;5.386;2022-12-18T15:24:42;13.10;;;6.68;;
70806;SDS011;58882;52.170;5.386;2022-12-18T15:27:49;14.10;;;7.38;;
70806;SDS011;58882;52.170;5.386;2022-12-18T15:30:39;14.43;;;7.10;;
70806;SDS011;58882;52.170;5.386;2022-12-18T15:33:36;13.68;;;7.07;;
70806;SDS011;58882;52.170;5.386;2022-12-18T15:36:35;14.80;;;7.65;;
70806;SDS011;58882;52.170;5.386;2022-12-18T15:39:15;12.38;;;6.68;;
70806;SDS011;58882;52.170;5.386;2022-12-18T15:42:02;15.85;;;7.60;;
70806;SDS011;58882;52.170;5.386;2022-12-18T15:45:02;13.15;;;6.57;;
70806;SDS011;58882;52.170;5.386;2022-12-18T15:47:48;16.50;;;7.47;;
70806;SDS011;58882;52.170;5.386;2022-12-18T15:50:29;13.93;;;7.05;;
70806;SDS011;58882;52.170;5.386;2022-12-18T15:53:15;15.00;;;7.15;;
70806;SDS011;58882;52.170;5.386;2022-12-18T15:55:56;14.57;;;7.45;;
70806;SDS011;58882;52.170;5.386;2022-12-18T15:59:13;17.02;;;8.00;;
70806;SDS011;58882;52.170;5.386;2022-12-18T16:01:55;14.85;;;7.43;;
70806;SDS011;58882;52.170;5.386;2022-12-18T16:04:49;16.98;;;7.57;;
70806;SDS011;58882;52.170;5.386;2022-12-18T16:07:31;15.02;;;7.40;;
70806;SDS011;58882;52.170;5.386;2022-12-18T16:10:17;14.77;;;7.53;;
70806;SDS011;58882;52.170;5.386;2022-12-18T16:12:58;16.17;;;8.02;;
70806;SDS011;58882;52.170;5.386;2022-12-18T16:15:44;14.90;;;7.85;;
70806;SDS011;58882;52.170;5.386;2022-12-18T16:18:24;16.17;;;8.25;;
70806;SDS011;58882;52.170;5.386;2022-12-18T16:21:11;16.35;;;7.88;;
70806;SDS011;58882;52.170;5.386;2022-12-18T16:23:52;15.15;;;7.82;;
70806;SDS011;58882;52.170;5.386;2022-12-18T16:26:45;14.57;;;7.88;;
70806;SDS011;58882;52.170;5.386;2022-12-18T16:29:26;14.98;;;7.93;;
70806;SDS011;58882;52.170;5.386;2022-12-18T16:32:16;18.20;;;8.25;;
70806;SDS011;58882;52.170;5.386;2022-12-18T16:34:59;15.68;;;8.38;;
70806;SDS011;58882;52.170;5.386;2022-12-18T16:37:46;15.15;;;8.35;;
70806;SDS011;58882;52.170;5.386;2022-12-18T16:40:27;14.52;;;7.45;;
70806;SDS011;58882;52.170;5.386;2022-12-18T16:43:33;16.08;;;8.23;;
70806;SDS011;58882;52.170;5.386;2022-12-18T16:46:14;16.73;;;8.82;;
70806;SDS011;58882;52.170;5.386;2022-12-18T16:49:08;18.25;;;8.50;;
70806;SDS011;58882;52.170;5.386;2022-12-18T16:51:42;15.63;;;8.40;;
70806;SDS011;58882;52.170;5.386;2022-12-18T16:54:36;15.77;;;8.35;;
70806;SDS011;58882;52.170;5.386;2022-12-18T16:57:14;17.08;;;8.23;;
70806;SDS011;58882;52.170;5.386;2022-12-18T17:00:10;17.02;;;8.98;;
70806;SDS011;58882;52.170;5.386;2022-12-18T17:02:51;15.15;;;7.80;;
70806;SDS011;58882;52.170;5.386;2022-12-18T17:05:37;15.60;;;8.48;;
70806;SDS011;58882;52.170;5.386;2022-12-18T17:08:25;16.88;;;8.57;;
70806;SDS011;58882;52.170;5.386;2022-12-18T17:11:11;16.48;;;8.98;;
70806;SDS011;58882;52.170;5.386;2022-12-18T17:13:52;16.50;;;8.18;;
70806;SDS011;58882;52.170;5.386;2022-12-18T17:19:39;14.70;;;8.52;;
70806;SDS011;58882;52.170;5.386;2022-12-18T17:22:32;16.95;;;8.98;;
70806;SDS011;58882;52.170;5.386;2022-12-18T17:25:13;15.13;;;8.52;;
70806;SDS011;58882;52.170;5.386;2022-12-18T17:27:59;15.93;;;9.13;;
70806;SDS011;58882;52.170;5.386;2022-12-18T17:30:33;16.90;;;8.68;;
70806;SDS011;58882;52.170;5.386;2022-12-18T17:33:26;18.77;;;9.38;;
70806;SDS011;58882;52.170;5.386;2022-12-18T17:36:00;17.70;;;9.13;;
70806;SDS011;58882;52.170;5.386;2022-12-18T17:38:54;16.85;;;8.75;;
70806;SDS011;58882;52.170;5.386;2022-12-18T17:41:36;16.90;;;8.85;;
70806;SDS011;58882;52.170;5.386;2022-12-18T17:44:22;15.20;;;8.20;;
70806;SDS011;58882;52.170;5.386;2022-12-18T17:47:03;17.92;;;8.80;;
70806;SDS011;58882;52.170;5.386;2022-12-18T17:49:50;17.63;;;8.90;;
70806;SDS011;58882;52.170;5.386;2022-12-18T17:52:32;18.65;;;8.77;;
70806;SDS011;58882;52.170;5.386;2022-12-18T17:55:18;18.30;;;9.48;;
70806;SDS011;58882;52.170;5.386;2022-12-18T17:57:59;18.08;;;9.23;;
70806;SDS011;58882;52.170;5.386;2022-12-18T18:00:45;18.30;;;9.38;;
70806;SDS011;58882;52.170;5.386;2022-12-18T18:03:26;17.08;;;8.45;;
70806;SDS011;58882;52.170;5.386;2022-12-18T18:06:13;16.85;;;9.20;;
70806;SDS011;58882;52.170;5.386;2022-12-18T18:08:54;17.63;;;9.00;;
70806;SDS011;58882;52.170;5.386;2022-12-18T18:11:40;21.75;;;8.73;;
70806;SDS011;58882;52.170;5.386;2022-12-18T18:14:40;17.70;;;8.52;;
70806;SDS011;58882;52.170;5.386;2022-12-18T18:17:26;16.30;;;8.32;;
70806;SDS011;58882;52.170;5.386;2022-12-18T18:20:07;16.20;;;8.20;;
70806;SDS011;58882;52.170;5.386;2022-12-18T18:23:01;18.02;;;8.32;;
70806;SDS011;58882;52.170;5.386;2022-12-18T18:25:35;16.45;;;8.88;;